Climax, New York
Current Conditions -  °F | °C
As of 6:51 AM on Sunday 25 Jan 2015 (Local Time) from KALB Reporting Station
Broken Clouds Broken Clouds  
Wind Chill: 19°   Ceiling: 6000
Heat Index: 32°   Visibility: 10mi
Dew Point: 18°   Wind: 22mph
Humidity: 56%   Direction: 280°W
Pressure: 29.59"   Gusts: 41mph
Location:  42.37°N, 73.85°W
Report Text: KALB 251151Z 28019G36KT 10SM SCT050 BKN060 00/M08 A2959 RMK AO2 PK WND 30038/1140 SNE36 SLP021 BKN V SCT 4/001 P0000 60000 70006 T00001078 10022 20000 53037
Loading
Personal Weather Stations






























Interactive Weather Map New forecast layout! Learn more

10-Day Weather Forecast

Advertisements
Track Severe Weather on mobile